createdAt,value
2018-01-17T00:00:38.402Z,40.67
2018-01-17T00:03:04.577Z,34.57
2018-01-17T00:05:30.730Z,35.93
2018-01-17T00:08:00.742Z,35.07
2018-01-17T00:10:27.003Z,39.90
2018-01-17T00:12:53.106Z,38.10
2018-01-17T00:15:19.256Z,38.27
2018-01-17T00:17:53.509Z,33.53
2018-01-17T00:20:19.703Z,33.63
2018-01-17T00:22:45.907Z,33.87
2018-01-17T00:25:12.038Z,31.47
2018-01-17T00:27:48.146Z,27.87
2018-01-17T00:30:14.402Z,29.37
2018-01-17T00:32:40.582Z,28.70
2018-01-17T00:35:06.846Z,36.80
2018-01-17T00:37:36.461Z,32.60
2018-01-17T00:40:02.679Z,32.70
2018-01-17T00:42:28.852Z,33.90
2018-01-17T00:44:54.979Z,32.47
2018-01-17T00:50:20.435Z,35.47
2018-01-17T00:52:46.669Z,36.33
2018-01-17T00:55:12.700Z,45.50
2018-01-17T00:57:51.611Z,43.43
2018-01-17T01:00:17.762Z,53.80
2018-01-17T01:02:44.105Z,52.63
2018-01-17T01:05:10.255Z,51.63
2018-01-17T01:07:43.801Z,44.93
2018-01-17T01:10:09.846Z,44.30
2018-01-17T01:12:35.945Z,50.13
2018-01-17T01:15:02.117Z,54.40
2018-01-17T01:20:31.076Z,44.57
2018-01-17T01:22:57.278Z,59.10
2018-01-17T01:25:23.389Z,55.93
2018-01-17T01:28:09.014Z,52.40
2018-01-17T01:30:35.254Z,51.90
2018-01-17T01:33:01.430Z,48.80
2018-01-17T01:35:27.678Z,54.73
2018-01-17T01:40:48.952Z,56.23
2018-01-17T01:43:15.153Z,51.33
2018-01-17T01:45:41.321Z,53.70
2018-01-17T01:48:11.194Z,47.53
2018-01-17T01:50:37.337Z,54.63
2018-01-17T01:53:03.502Z,50.53
2018-01-17T01:55:29.738Z,48.87
2018-01-17T01:58:14.122Z,58.43
2018-01-17T02:00:40.111Z,51.80
2018-01-17T02:03:06.346Z,54.43
2018-01-17T02:05:32.447Z,56.47
2018-01-17T02:08:11.240Z,56.47
2018-01-17T02:10:37.457Z,59.03
2018-01-17T02:13:03.611Z,56.33
2018-01-17T02:15:29.879Z,50.43
2018-01-17T02:20:56.402Z,47.60
2018-01-17T02:23:22.613Z,41.30
2018-01-17T02:25:48.817Z,38.27
2018-01-17T02:28:23.466Z,36.57
2018-01-17T02:30:49.638Z,34.87
2018-01-17T02:33:15.742Z,34.40
2018-01-17T02:35:41.978Z,33.23
2018-01-17T02:38:09.218Z,32.23
2018-01-17T02:40:39.254Z,32.17
2018-01-17T02:43:05.439Z,31.60
2018-01-17T02:45:31.675Z,29.30
2018-01-17T02:47:57.956Z,25.70
2018-01-17T02:50:24.199Z,29.07
2018-01-17T02:52:50.418Z,61.47
2018-01-17T02:55:16.687Z,42.50
2018-01-17T02:57:42.878Z,34.97
2018-01-17T03:00:09.051Z,24.37
2018-01-17T03:02:35.303Z,52.87
2018-01-17T03:05:01.531Z,36.97
2018-01-17T03:07:31.447Z,25.77
2018-01-17T03:09:58.063Z,91.60
2018-01-17T03:12:24.213Z,117.13
2018-01-17T03:14:50.474Z,67.20
2018-01-17T03:17:16.773Z,42.47
2018-01-17T03:19:42.941Z,61.13
2018-01-17T03:22:09.098Z,74.57
2018-01-17T03:24:35.282Z,35.37
2018-01-17T03:27:05.379Z,25.77
2018-01-17T03:29:31.622Z,26.77
2018-01-17T03:31:57.874Z,36.03
2018-01-17T03:34:24.118Z,36.10
2018-01-17T03:36:50.238Z,30.27
2018-01-17T03:39:16.334Z,30.23
2018-01-17T03:41:42.629Z,39.87
2018-01-17T03:44:08.874Z,30.27
2018-01-17T03:46:36.062Z,25.03
2018-01-17T03:49:02.267Z,24.47
2018-01-17T03:51:28.406Z,30.53
2018-01-17T03:53:56.198Z,36.90
2018-01-17T03:56:22.338Z,36.37
2018-01-17T03:58:48.470Z,42.40
2018-01-17T04:01:14.730Z,38.83
2018-01-17T04:03:40.829Z,32.20
2018-01-17T04:06:07.050Z,38.07
2018-01-17T04:08:36.366Z,50.07
2018-01-17T04:11:02.594Z,36.33
2018-01-17T04:13:28.842Z,26.40
2018-01-17T04:15:54.951Z,39.13
2018-01-17T04:18:38.618Z,42.17
2018-01-17T04:21:04.810Z,28.80
2018-01-17T04:23:31.018Z,30.70
2018-01-17T04:25:57.386Z,42.57
2018-01-17T04:28:23.598Z,34.40
2018-01-17T04:30:49.781Z,32.93
2018-01-17T04:33:15.919Z,33.30
2018-01-17T04:35:42.141Z,39.43
2018-01-17T04:49:17.762Z,32.57
2018-01-17T04:51:43.909Z,29.67
2018-01-17T04:54:10.153Z,30.30
2018-01-17T04:56:50.429Z,29.77
2018-01-17T04:59:16.598Z,23.87
2018-01-17T05:01:42.872Z,27.77
2018-01-17T05:04:09.115Z,34.23
2018-01-17T05:12:07.282Z,28.90
2018-01-17T05:14:33.454Z,30.33
2018-01-17T05:22:34.278Z,26.73
2018-01-17T05:25:00.393Z,24.83
2018-01-17T05:27:39.266Z,29.23
2018-01-17T05:30:05.379Z,34.97
2018-01-17T05:32:31.658Z,27.33
2018-01-17T05:34:57.765Z,30.43
2018-01-17T05:37:27.657Z,39.23
2018-01-17T05:39:53.762Z,46.83
2018-01-17T05:42:20.057Z,28.60
2018-01-17T05:44:46.214Z,31.13
2018-01-17T05:50:09.629Z,28.50
2018-01-17T05:52:35.742Z,31.53
2018-01-17T05:55:02.914Z,42.40
2018-01-17T06:03:10.858Z,45.87
2018-01-17T06:05:37.053Z,31.33
2018-01-17T06:08:10.402Z,29.27
2018-01-17T06:10:36.574Z,31.43
2018-01-17T06:13:02.687Z,33.60
2018-01-17T06:15:28.874Z,32.83
2018-01-17T06:18:07.658Z,38.33
2018-01-17T06:20:33.893Z,44.00
2018-01-17T06:23:00.161Z,40.77
2018-01-17T06:25:26.354Z,50.43
2018-01-17T06:27:53.501Z,65.70
2018-01-17T06:30:19.881Z,81.17
2018-01-17T06:32:46.041Z,86.13
2018-01-17T06:35:12.234Z,71.03
2018-01-17T06:40:30.457Z,79.90
2018-01-17T06:42:56.647Z,72.80
2018-01-17T06:45:22.802Z,65.77
2018-01-17T06:50:41.977Z,40.60
2018-01-17T06:53:08.125Z,45.70
2018-01-17T06:55:34.242Z,40.20
2018-01-17T07:03:34.494Z,48.03
2018-01-17T07:06:03.781Z,67.33
2018-01-17T07:08:29.810Z,58.47
2018-01-17T07:10:56.063Z,73.03
2018-01-17T07:13:22.366Z,64.00
2018-01-17T07:15:48.491Z,53.73
2018-01-17T07:18:14.682Z,70.97
2018-01-17T07:20:40.846Z,61.37
2018-01-17T07:23:06.977Z,53.90
2018-01-17T07:25:33.257Z,54.27
2018-01-17T07:28:09.174Z,51.60
2018-01-17T07:30:35.314Z,39.77
2018-01-17T07:33:01.527Z,37.20
2018-01-17T07:35:27.766Z,39.73
2018-01-17T07:43:41.489Z,55.60
2018-01-17T07:46:11.216Z,47.13
2018-01-17T07:48:37.454Z,59.80
2018-01-17T07:51:03.686Z,66.33
2018-01-17T07:53:29.805Z,51.27
2018-01-17T08:04:12.674Z,37.00
2018-01-17T08:06:42.202Z,23.13
2018-01-17T08:09:08.423Z,23.50
2018-01-17T08:11:34.687Z,25.10
2018-01-17T08:14:00.838Z,25.90
2018-01-17T08:16:30.313Z,28.17
2018-01-17T08:18:56.583Z,43.43
2018-01-17T08:21:22.722Z,35.50
2018-01-17T08:23:48.962Z,30.83
2018-01-17T08:29:17.163Z,44.90
2018-01-17T08:31:43.430Z,39.23
2018-01-17T08:34:09.691Z,29.63
2018-01-17T08:42:07.594Z,25.53
2018-01-17T08:44:33.770Z,28.60
2018-01-17T08:47:10.759Z,20.73
2018-01-17T08:49:36.911Z,21.50
2018-01-17T08:52:03.174Z,24.07
2018-01-17T08:54:29.690Z,21.33
2018-01-17T08:57:14.510Z,21.90
2018-01-17T08:59:40.693Z,20.67
2018-01-17T09:02:06.841Z,20.83
2018-01-17T09:04:32.983Z,25.63
2018-01-17T09:09:51.761Z,21.67
2018-01-17T09:12:18.081Z,21.70
2018-01-17T09:14:44.247Z,20.40
2018-01-17T09:20:13.623Z,20.50
2018-01-17T09:22:39.854Z,19.53
2018-01-17T09:25:06.035Z,15.47
2018-01-17T09:27:45.578Z,17.30
2018-01-17T09:30:11.838Z,20.40
2018-01-17T09:32:37.982Z,19.70
2018-01-17T09:35:04.127Z,16.40
2018-01-17T09:43:12.050Z,16.43
2018-01-17T09:45:53.166Z,17.40
2018-01-17T09:48:19.430Z,52.50
2018-01-17T09:50:45.586Z,17.97
2018-01-17T09:53:11.702Z,16.27
2018-01-17T10:01:12.762Z,23.83
2018-01-17T10:03:39.042Z,33.37
2018-01-17T10:06:12.845Z,29.80
2018-01-17T10:08:38.946Z,29.30
2018-01-17T10:11:05.031Z,22.23
2018-01-17T10:13:31.134Z,22.50
2018-01-17T10:16:01.315Z,24.17
2018-01-17T10:18:27.550Z,23.10
2018-01-17T10:20:54.526Z,28.40
2018-01-17T10:23:20.746Z,22.77
2018-01-17T10:28:42.477Z,23.63
2018-01-17T10:31:08.673Z,27.93
2018-01-17T10:33:34.877Z,25.70
2018-01-17T10:44:22.346Z,18.20
2018-01-17T10:46:58.286Z,17.93
2018-01-17T10:49:24.450Z,22.37
2018-01-17T10:51:50.666Z,22.77
2018-01-17T10:54:16.914Z,24.27
2018-01-17T11:02:17.597Z,18.00
2018-01-17T11:04:43.857Z,18.77
2018-01-17T11:15:28.798Z,22.87
2018-01-17T11:17:54.916Z,25.97
2018-01-17T11:20:20.950Z,29.93
2018-01-17T11:22:47.365Z,42.37
2018-01-17T11:25:28.354Z,50.00
2018-01-17T11:27:54.546Z,44.23
2018-01-17T11:30:20.758Z,49.47
2018-01-17T11:32:47.038Z,42.43
2018-01-17T11:35:13.161Z,43.17
2018-01-17T11:37:39.329Z,37.13
2018-01-17T11:40:05.467Z,31.57
2018-01-17T11:42:31.697Z,32.20
2018-01-17T11:44:57.967Z,29.03
2018-01-17T11:47:34.738Z,27.10
2018-01-17T11:50:00.913Z,31.73
2018-01-17T11:52:27.114Z,29.70
2018-01-17T11:54:53.334Z,29.40
2018-01-17T11:57:19.543Z,30.63
2018-01-17T11:59:45.731Z,26.73
2018-01-17T12:02:11.968Z,34.80
2018-01-17T12:04:38.254Z,26.73
2018-01-17T12:07:07.667Z,32.90
2018-01-17T12:09:33.783Z,31.37
2018-01-17T12:12:00.024Z,34.27
2018-01-17T12:14:26.234Z,27.83
2018-01-17T12:22:41.361Z,19.00
2018-01-17T12:25:08.499Z,31.77
2018-01-17T12:27:34.614Z,23.73
2018-01-17T12:30:00.837Z,30.60
2018-01-17T12:32:26.997Z,36.33
2018-01-17T12:34:53.161Z,21.23
2018-01-17T12:37:25.653Z,13.67
2018-01-17T12:39:51.837Z,14.67
2018-01-17T12:42:18.039Z,18.63
2018-01-17T12:52:01.997Z,12.60
2018-01-17T12:54:28.234Z,7.77
2018-01-17T13:38:12.437Z,7.80
2018-01-17T13:40:38.685Z,7.50
2018-01-17T13:43:04.822Z,12.00
2018-01-17T14:02:02.394Z,23.67
2018-01-17T14:04:28.610Z,27.13
2018-01-17T14:50:58.670Z,41.47
2018-01-17T14:53:24.942Z,51.73
2018-01-17T14:58:50.499Z,59.53
2018-01-17T15:01:16.713Z,64.23
2018-01-17T15:03:42.801Z,58.97
2018-01-17T15:22:48.174Z,65.07
2018-01-17T15:33:44.270Z,35.20
2018-01-17T15:44:33.916Z,48.27
2018-01-17T15:47:00.648Z,34.87
2018-01-17T15:49:26.822Z,32.37
2018-01-17T15:51:53.085Z,29.40
2018-01-17T15:54:19.354Z,79.70
2018-01-17T16:16:02.924Z,74.90
2018-01-17T16:18:30.038Z,95.50
2018-01-17T16:20:56.269Z,122.53
2018-01-17T16:23:22.498Z,112.53
2018-01-17T16:34:18.300Z,22.97
2018-01-17T16:56:01.519Z,38.97
2018-01-17T16:58:27.702Z,35.87
2018-01-17T17:00:53.944Z,29.40
2018-01-17T17:03:20.081Z,28.27
2018-01-17T17:05:46.190Z,38.80
2018-01-17T17:08:12.277Z,69.13
2018-01-17T17:10:38.415Z,106.00
2018-01-17T17:13:04.533Z,65.17
2018-01-17T17:15:30.758Z,62.80
2018-01-17T17:17:56.923Z,61.17
2018-01-17T17:20:23.092Z,65.80
2018-01-17T17:22:49.335Z,56.43
2018-01-17T17:25:15.597Z,57.53
2018-01-17T17:27:41.811Z,49.57
2018-01-17T17:30:07.991Z,44.13
2018-01-17T17:32:34.209Z,41.27
2018-01-17T17:35:00.426Z,46.30
2018-01-17T17:37:26.641Z,51.43
2018-01-17T17:39:52.885Z,63.47
2018-01-17T17:42:18.998Z,48.77
2018-01-17T17:44:45.162Z,50.27
2018-01-17T17:47:11.322Z,45.60
2018-01-17T17:49:37.535Z,57.20
2018-01-17T17:52:03.690Z,60.17
2018-01-17T17:54:29.801Z,22.07
2018-01-17T17:56:55.947Z,37.20
2018-01-17T17:59:22.199Z,43.60
2018-01-17T18:01:48.390Z,26.27
2018-01-17T18:04:14.701Z,24.80
2018-01-17T18:06:40.771Z,28.43
2018-01-17T18:09:06.875Z,26.50
2018-01-17T18:11:33.135Z,51.17
2018-01-17T18:13:59.434Z,44.43
2018-01-17T18:16:25.690Z,53.77
2018-01-17T18:18:52.307Z,47.17
2018-01-17T18:21:18.462Z,37.77
2018-01-17T18:23:44.641Z,19.37
2018-01-17T18:26:10.861Z,25.07
2018-01-17T18:28:37.117Z,24.03
2018-01-17T18:31:03.394Z,19.03
2018-01-17T18:33:29.614Z,22.70
2018-01-17T18:35:56.065Z,32.60
2018-01-17T18:38:22.262Z,24.00
2018-01-17T18:40:48.431Z,23.87
2018-01-17T18:43:14.677Z,32.33
2018-01-17T18:45:40.906Z,32.97
2018-01-17T18:48:07.022Z,28.97
2018-01-17T18:50:33.337Z,26.93
2018-01-17T18:52:59.515Z,29.03
2018-01-17T18:55:25.531Z,37.03
2018-01-17T18:57:51.785Z,27.10
2018-01-17T19:00:17.930Z,43.87
2018-01-17T19:02:44.030Z,38.30
2018-01-17T19:05:10.173Z,79.00
2018-01-17T19:07:36.363Z,83.23
2018-01-17T19:10:02.576Z,77.23
2018-01-17T19:12:28.758Z,64.17
2018-01-17T19:14:55.006Z,60.93
2018-01-17T19:17:21.254Z,60.30
2018-01-17T19:19:47.403Z,65.30
2018-01-17T19:22:13.503Z,42.97
2018-01-17T19:24:40.639Z,60.50
2018-01-17T19:27:06.722Z,43.87
2018-01-17T19:29:32.982Z,27.33
2018-01-17T19:31:59.145Z,29.37
2018-01-17T19:34:26.310Z,34.40
2018-01-17T19:36:52.473Z,44.97
2018-01-17T19:39:18.686Z,40.30
2018-01-17T19:41:44.835Z,97.47
2018-01-17T19:44:12.004Z,41.50
2018-01-17T19:46:38.218Z,36.47
2018-01-17T19:49:04.344Z,17.80
2018-01-17T19:51:30.491Z,56.17
2018-01-17T19:53:56.622Z,31.33
2018-01-17T19:56:22.863Z,46.13
2018-01-17T19:58:49.078Z,52.27
2018-01-17T20:01:15.338Z,54.53
2018-01-17T20:03:41.545Z,75.03
2018-01-17T20:06:08.734Z,54.97
2018-01-17T20:08:34.755Z,46.83
2018-01-17T20:11:01.007Z,36.00
2018-01-17T20:13:27.246Z,37.13
2018-01-17T20:15:54.443Z,31.00
2018-01-17T20:18:20.605Z,23.13
2018-01-17T20:20:46.686Z,14.00
2018-01-17T20:23:12.773Z,16.87
2018-01-17T20:28:48.507Z,14.33
2018-01-17T20:31:14.584Z,17.73
2018-01-17T20:33:40.830Z,18.67
2018-01-17T20:36:06.958Z,18.80
2018-01-17T20:38:33.131Z,17.70
2018-01-17T20:40:59.434Z,20.87
2018-01-17T20:43:25.570Z,32.10
2018-01-17T20:46:10.975Z,23.53
2018-01-17T20:48:37.154Z,24.70
2018-01-17T20:51:03.366Z,17.00
2018-01-17T20:53:29.620Z,20.03
2018-01-17T20:56:14.051Z,18.20
2018-01-17T21:01:18.065Z,17.63
2018-01-17T21:03:44.399Z,19.90
2018-01-17T21:09:10.410Z,17.67
2018-01-17T21:11:36.427Z,52.70
2018-01-17T21:16:48.247Z,12.47
2018-01-17T21:21:52.695Z,19.23
2018-01-17T21:27:04.030Z,16.80
2018-01-17T21:29:30.214Z,39.13
2018-01-17T21:31:57.050Z,38.80
2018-01-17T21:37:09.029Z,19.37
2018-01-17T21:39:35.153Z,35.33
2018-01-17T21:42:01.863Z,32.40
2018-01-17T21:49:58.993Z,25.30
2018-01-17T21:52:25.130Z,18.57
2018-01-17T21:54:54.586Z,23.67
2018-01-17T21:57:20.760Z,27.73
2018-01-17T21:59:47.089Z,17.50
2018-01-17T22:02:13.197Z,16.17
2018-01-17T22:04:42.554Z,17.90
2018-01-17T22:07:08.914Z,19.43
2018-01-17T22:09:35.014Z,17.23
2018-01-17T22:12:01.202Z,81.60
2018-01-17T22:14:27.706Z,106.60
2018-01-17T22:16:53.793Z,92.07
2018-01-17T22:19:20.010Z,126.30
2018-01-17T22:21:46.083Z,83.40
2018-01-17T22:24:12.402Z,53.60
2018-01-17T22:26:38.646Z,50.73
2018-01-17T22:29:04.929Z,39.40
2018-01-17T22:31:31.117Z,24.30
2018-01-17T22:34:00.226Z,17.43
2018-01-17T22:36:26.290Z,33.53
2018-01-17T22:38:52.554Z,27.33
2018-01-17T22:41:18.705Z,39.37
2018-01-17T22:43:44.892Z,17.20
2018-01-17T22:46:11.061Z,9.03
2018-01-17T22:48:37.755Z,8.20
2018-01-17T22:51:03.850Z,6.53
2018-01-17T22:53:30.062Z,9.13
2018-01-17T22:55:56.374Z,10.10
2018-01-17T22:58:22.785Z,12.73
2018-01-17T23:00:48.921Z,12.63
2018-01-17T23:03:15.029Z,15.37
2018-01-17T23:05:46.279Z,14.67
2018-01-17T23:08:12.529Z,15.87
2018-01-17T23:10:38.789Z,14.60
2018-01-17T23:13:04.950Z,13.13
2018-01-17T23:15:35.062Z,11.90
2018-01-17T23:18:01.306Z,12.40
2018-01-17T23:20:27.605Z,10.70
2018-01-17T23:22:53.751Z,14.40
2018-01-17T23:25:19.909Z,11.40
2018-01-17T23:27:46.166Z,12.70
2018-01-17T23:30:12.389Z,12.13
2018-01-17T23:32:38.478Z,11.97
2018-01-17T23:35:05.827Z,10.70
2018-01-17T23:37:31.981Z,12.13
2018-01-17T23:39:58.077Z,12.60
2018-01-17T23:42:24.333Z,12.67
2018-01-17T23:44:51.673Z,14.13
2018-01-17T23:47:17.961Z,13.70
2018-01-17T23:49:44.173Z,11.67
2018-01-17T23:52:10.266Z,12.90
2018-01-17T23:54:37.606Z,11.63
2018-01-17T23:57:03.730Z,11.07
2018-01-17T23:59:29.981Z,12.40
